sensor_id;sensor_type;location;lat;lon;timestamp;P1;durP1;ratioP1;P2;durP2;ratioP2
18838;SDS011;9548;56.920;14.804;2023-02-05T00:00:43;11.47;;;2.73;;
18838;SDS011;9548;56.920;14.804;2023-02-05T00:03:10;5.10;;;2.30;;
18838;SDS011;9548;56.920;14.804;2023-02-05T00:05:39;5.23;;;2.50;;
18838;SDS011;9548;56.920;14.804;2023-02-05T00:08:06;8.00;;;2.73;;
18838;SDS011;9548;56.920;14.804;2023-02-05T00:10:33;5.30;;;2.13;;
18838;SDS011;9548;56.920;14.804;2023-02-05T00:13:00;5.53;;;2.20;;
18838;SDS011;9548;56.920;14.804;2023-02-05T00:15:27;6.10;;;2.63;;
18838;SDS011;9548;56.920;14.804;2023-02-05T00:17:54;6.13;;;2.33;;
18838;SDS011;9548;56.920;14.804;2023-02-05T00:20:21;4.77;;;2.60;;
18838;SDS011;9548;56.920;14.804;2023-02-05T00:22:49;5.73;;;2.13;;
18838;SDS011;9548;56.920;14.804;2023-02-05T00:25:16;4.33;;;2.20;;
18838;SDS011;9548;56.920;14.804;2023-02-05T00:27:43;8.10;;;2.70;;
18838;SDS011;9548;56.920;14.804;2023-02-05T00:30:11;7.93;;;2.90;;
18838;SDS011;9548;56.920;14.804;2023-02-05T00:32:38;5.77;;;2.20;;
18838;SDS011;9548;56.920;14.804;2023-02-05T00:35:05;5.20;;;2.43;;
18838;SDS011;9548;56.920;14.804;2023-02-05T00:37:32;6.30;;;2.70;;
18838;SDS011;9548;56.920;14.804;2023-02-05T00:40:00;5.60;;;2.57;;
18838;SDS011;9548;56.920;14.804;2023-02-05T00:42:27;8.90;;;2.97;;
18838;SDS011;9548;56.920;14.804;2023-02-05T00:44:54;5.47;;;2.57;;
18838;SDS011;9548;56.920;14.804;2023-02-05T00:47:21;6.73;;;3.30;;
18838;SDS011;9548;56.920;14.804;2023-02-05T00:49:48;12.23;;;3.27;;
18838;SDS011;9548;56.920;14.804;2023-02-05T00:52:16;10.50;;;3.60;;
18838;SDS011;9548;56.920;14.804;2023-02-05T00:54:42;7.67;;;2.93;;
18838;SDS011;9548;56.920;14.804;2023-02-05T00:57:11;6.47;;;2.80;;
18838;SDS011;9548;56.920;14.804;2023-02-05T00:59:38;6.80;;;3.23;;
18838;SDS011;9548;56.920;14.804;2023-02-05T01:02:05;8.97;;;3.63;;
18838;SDS011;9548;56.920;14.804;2023-02-05T01:04:32;14.57;;;4.57;;
18838;SDS011;9548;56.920;14.804;2023-02-05T01:06:59;11.97;;;4.67;;
18838;SDS011;9548;56.920;14.804;2023-02-05T01:09:26;13.63;;;4.73;;
18838;SDS011;9548;56.920;14.804;2023-02-05T01:11:53;11.23;;;4.83;;
18838;SDS011;9548;56.920;14.804;2023-02-05T01:14:21;14.10;;;4.33;;
18838;SDS011;9548;56.920;14.804;2023-02-05T01:16:48;10.80;;;3.80;;
18838;SDS011;9548;56.920;14.804;2023-02-05T01:19:15;10.77;;;4.07;;
18838;SDS011;9548;56.920;14.804;2023-02-05T01:21:42;11.00;;;4.30;;
18838;SDS011;9548;56.920;14.804;2023-02-05T01:24:09;10.77;;;4.00;;
18838;SDS011;9548;56.920;14.804;2023-02-05T01:26:36;10.17;;;4.27;;
18838;SDS011;9548;56.920;14.804;2023-02-05T01:29:03;13.10;;;4.47;;
18838;SDS011;9548;56.920;14.804;2023-02-05T01:31:31;11.07;;;4.73;;
18838;SDS011;9548;56.920;14.804;2023-02-05T01:33:58;9.30;;;4.20;;
18838;SDS011;9548;56.920;14.804;2023-02-05T01:36:25;8.13;;;3.57;;
18838;SDS011;9548;56.920;14.804;2023-02-05T01:38:53;9.83;;;4.00;;
18838;SDS011;9548;56.920;14.804;2023-02-05T01:41:20;10.03;;;3.87;;
18838;SDS011;9548;56.920;14.804;2023-02-05T01:44:06;10.10;;;3.70;;
18838;SDS011;9548;56.920;14.804;2023-02-05T01:46:37;8.90;;;3.83;;
18838;SDS011;9548;56.920;14.804;2023-02-05T01:49:06;11.33;;;4.73;;
18838;SDS011;9548;56.920;14.804;2023-02-05T01:51:36;10.63;;;4.50;;
18838;SDS011;9548;56.920;14.804;2023-02-05T01:54:04;11.57;;;4.30;;
18838;SDS011;9548;56.920;14.804;2023-02-05T01:56:33;8.40;;;3.90;;
18838;SDS011;9548;56.920;14.804;2023-02-05T01:59:03;9.57;;;3.83;;
18838;SDS011;9548;56.920;14.804;2023-02-05T02:01:32;10.00;;;3.93;;
18838;SDS011;9548;56.920;14.804;2023-02-05T02:04:01;9.60;;;3.43;;
18838;SDS011;9548;56.920;14.804;2023-02-05T02:06:30;9.40;;;4.53;;
18838;SDS011;9548;56.920;14.804;2023-02-05T02:08:57;9.90;;;4.03;;
18838;SDS011;9548;56.920;14.804;2023-02-05T02:11:25;9.00;;;3.63;;
18838;SDS011;9548;56.920;14.804;2023-02-05T02:13:54;9.47;;;3.87;;
18838;SDS011;9548;56.920;14.804;2023-02-05T02:16:24;9.67;;;3.90;;
18838;SDS011;9548;56.920;14.804;2023-02-05T02:18:53;8.27;;;3.80;;
18838;SDS011;9548;56.920;14.804;2023-02-05T02:27:42;10.07;;;3.50;;
18838;SDS011;9548;56.920;14.804;2023-02-05T02:30:17;9.20;;;3.73;;
18838;SDS011;9548;56.920;14.804;2023-02-05T02:32:51;10.03;;;3.90;;
18838;SDS011;9548;56.920;14.804;2023-02-05T02:35:31;8.77;;;3.40;;
18838;SDS011;9548;56.920;14.804;2023-02-05T02:38:07;10.43;;;3.40;;
18838;SDS011;9548;56.920;14.804;2023-02-05T02:40:38;11.97;;;3.67;;
18838;SDS011;9548;56.920;14.804;2023-02-05T02:43:09;10.57;;;3.83;;
18838;SDS011;9548;56.920;14.804;2023-02-05T02:45:42;11.40;;;3.43;;
18838;SDS011;9548;56.920;14.804;2023-02-05T02:48:14;4.93;;;2.40;;
18838;SDS011;9548;56.920;14.804;2023-02-05T02:50:44;9.20;;;2.87;;
18838;SDS011;9548;56.920;14.804;2023-02-05T02:53:16;9.23;;;3.60;;
18838;SDS011;9548;56.920;14.804;2023-02-05T02:55:46;7.70;;;2.80;;
18838;SDS011;9548;56.920;14.804;2023-02-05T02:58:17;6.53;;;3.00;;
18838;SDS011;9548;56.920;14.804;2023-02-05T03:00:48;9.23;;;2.40;;
18838;SDS011;9548;56.920;14.804;2023-02-05T03:03:17;6.30;;;2.03;;
18838;SDS011;9548;56.920;14.804;2023-02-05T03:05:48;7.63;;;2.50;;
18838;SDS011;9548;56.920;14.804;2023-02-05T03:08:16;7.27;;;2.40;;
18838;SDS011;9548;56.920;14.804;2023-02-05T03:10:47;7.27;;;2.00;;
18838;SDS011;9548;56.920;14.804;2023-02-05T03:13:20;5.40;;;2.10;;
18838;SDS011;9548;56.920;14.804;2023-02-05T03:15:47;3.13;;;1.70;;
18838;SDS011;9548;56.920;14.804;2023-02-05T03:18:14;7.20;;;2.57;;
18838;SDS011;9548;56.920;14.804;2023-02-05T03:20:44;5.70;;;2.67;;
18838;SDS011;9548;56.920;14.804;2023-02-05T03:23:14;4.40;;;2.13;;
18838;SDS011;9548;56.920;14.804;2023-02-05T03:25:42;5.77;;;1.77;;
18838;SDS011;9548;56.920;14.804;2023-02-05T03:28:09;5.97;;;2.07;;
18838;SDS011;9548;56.920;14.804;2023-02-05T03:30:40;6.80;;;2.43;;
18838;SDS011;9548;56.920;14.804;2023-02-05T03:33:17;7.77;;;1.77;;
18838;SDS011;9548;56.920;14.804;2023-02-05T03:35:57;5.30;;;1.83;;
18838;SDS011;9548;56.920;14.804;2023-02-05T03:38:37;4.00;;;1.70;;
18838;SDS011;9548;56.920;14.804;2023-02-05T03:41:14;5.10;;;1.70;;
18838;SDS011;9548;56.920;14.804;2023-02-05T03:43:47;3.63;;;1.80;;
18838;SDS011;9548;56.920;14.804;2023-02-05T03:46:24;3.07;;;1.50;;
18838;SDS011;9548;56.920;14.804;2023-02-05T03:49:00;6.97;;;1.40;;
18838;SDS011;9548;56.920;14.804;2023-02-05T03:51:34;6.20;;;1.47;;
18838;SDS011;9548;56.920;14.804;2023-02-05T03:54:10;3.50;;;1.40;;
18838;SDS011;9548;56.920;14.804;2023-02-05T03:56:43;1.87;;;1.30;;
18838;SDS011;9548;56.920;14.804;2023-02-05T03:59:17;2.37;;;1.23;;
18838;SDS011;9548;56.920;14.804;2023-02-05T04:01:46;3.03;;;1.30;;
18838;SDS011;9548;56.920;14.804;2023-02-05T04:04:14;3.97;;;1.57;;
18838;SDS011;9548;56.920;14.804;2023-02-05T04:06:41;5.50;;;1.20;;
18838;SDS011;9548;56.920;14.804;2023-02-05T04:09:17;2.30;;;1.17;;
18838;SDS011;9548;56.920;14.804;2023-02-05T04:11:44;2.40;;;1.47;;
18838;SDS011;9548;56.920;14.804;2023-02-05T04:14:11;2.20;;;1.27;;
18838;SDS011;9548;56.920;14.804;2023-02-05T04:16:38;3.37;;;1.30;;
18838;SDS011;9548;56.920;14.804;2023-02-05T04:19:06;3.00;;;1.37;;
18838;SDS011;9548;56.920;14.804;2023-02-05T04:21:33;3.23;;;1.40;;
18838;SDS011;9548;56.920;14.804;2023-02-05T04:24:01;4.87;;;1.33;;
18838;SDS011;9548;56.920;14.804;2023-02-05T04:26:28;3.03;;;1.30;;
18838;SDS011;9548;56.920;14.804;2023-02-05T04:28:55;2.37;;;1.30;;
18838;SDS011;9548;56.920;14.804;2023-02-05T04:31:22;3.33;;;0.87;;
18838;SDS011;9548;56.920;14.804;2023-02-05T04:33:48;4.87;;;1.10;;
18838;SDS011;9548;56.920;14.804;2023-02-05T04:36:17;2.53;;;1.07;;
18838;SDS011;9548;56.920;14.804;2023-02-05T04:38:44;2.23;;;1.13;;
18838;SDS011;9548;56.920;14.804;2023-02-05T04:41:11;2.83;;;1.17;;
18838;SDS011;9548;56.920;14.804;2023-02-05T04:43:38;1.93;;;1.10;;
18838;SDS011;9548;56.920;14.804;2023-02-05T04:46:04;2.30;;;1.20;;
18838;SDS011;9548;56.920;14.804;2023-02-05T04:48:32;2.30;;;1.17;;
18838;SDS011;9548;56.920;14.804;2023-02-05T04:50:59;4.00;;;0.80;;
18838;SDS011;9548;56.920;14.804;2023-02-05T04:53:27;1.30;;;0.80;;
18838;SDS011;9548;56.920;14.804;2023-02-05T04:56:02;2.53;;;1.07;;
18838;SDS011;9548;56.920;14.804;2023-02-05T04:58:31;2.93;;;1.20;;
18838;SDS011;9548;56.920;14.804;2023-02-05T05:00:58;5.30;;;1.07;;
18838;SDS011;9548;56.920;14.804;2023-02-05T05:03:25;1.33;;;0.87;;
18838;SDS011;9548;56.920;14.804;2023-02-05T05:05:52;2.37;;;1.30;;
18838;SDS011;9548;56.920;14.804;2023-02-05T05:08:19;2.00;;;0.97;;
18838;SDS011;9548;56.920;14.804;2023-02-05T05:10:47;1.73;;;0.97;;
18838;SDS011;9548;56.920;14.804;2023-02-05T05:13:14;2.93;;;1.00;;
18838;SDS011;9548;56.920;14.804;2023-02-05T05:15:41;3.40;;;1.10;;
18838;SDS011;9548;56.920;14.804;2023-02-05T05:18:08;1.80;;;1.00;;
18838;SDS011;9548;56.920;14.804;2023-02-05T05:20:35;2.67;;;0.90;;
18838;SDS011;9548;56.920;14.804;2023-02-05T05:23:02;5.40;;;0.90;;
18838;SDS011;9548;56.920;14.804;2023-02-05T05:25:28;2.67;;;1.20;;
18838;SDS011;9548;56.920;14.804;2023-02-05T05:27:57;5.97;;;1.37;;
18838;SDS011;9548;56.920;14.804;2023-02-05T05:30:24;1.37;;;0.87;;
18838;SDS011;9548;56.920;14.804;2023-02-05T05:32:51;4.57;;;1.00;;
18838;SDS011;9548;56.920;14.804;2023-02-05T05:35:18;4.87;;;0.93;;
18838;SDS011;9548;56.920;14.804;2023-02-05T05:37:44;3.83;;;1.10;;
18838;SDS011;9548;56.920;14.804;2023-02-05T05:40:11;2.17;;;1.20;;
18838;SDS011;9548;56.920;14.804;2023-02-05T05:42:57;2.77;;;0.90;;
18838;SDS011;9548;56.920;14.804;2023-02-05T05:45:41;1.33;;;0.77;;
18838;SDS011;9548;56.920;14.804;2023-02-05T05:48:08;2.80;;;1.10;;
18838;SDS011;9548;56.920;14.804;2023-02-05T05:50:35;1.80;;;0.77;;
18838;SDS011;9548;56.920;14.804;2023-02-05T05:53:02;3.70;;;1.10;;
18838;SDS011;9548;56.920;14.804;2023-02-05T05:55:29;3.13;;;0.93;;
18838;SDS011;9548;56.920;14.804;2023-02-05T05:57:57;2.47;;;0.93;;
18838;SDS011;9548;56.920;14.804;2023-02-05T06:00:24;3.27;;;0.93;;
18838;SDS011;9548;56.920;14.804;2023-02-05T06:02:52;3.15;;;1.50;;
18838;SDS011;9548;56.920;14.804;2023-02-05T06:05:19;2.33;;;1.10;;
18838;SDS011;9548;56.920;14.804;2023-02-05T06:07:46;2.10;;;0.87;;
18838;SDS011;9548;56.920;14.804;2023-02-05T06:12:40;4.80;;;0.90;;
18838;SDS011;9548;56.920;14.804;2023-02-05T06:15:08;2.33;;;1.00;;
18838;SDS011;9548;56.920;14.804;2023-02-05T06:17:36;2.30;;;0.93;;
18838;SDS011;9548;56.920;14.804;2023-02-05T06:20:03;1.73;;;0.80;;
18838;SDS011;9548;56.920;14.804;2023-02-05T06:22:30;2.53;;;1.00;;
18838;SDS011;9548;56.920;14.804;2023-02-05T06:24:57;1.70;;;0.93;;
18838;SDS011;9548;56.920;14.804;2023-02-05T06:27:24;2.80;;;0.97;;
18838;SDS011;9548;56.920;14.804;2023-02-05T06:29:51;2.97;;;0.77;;
18838;SDS011;9548;56.920;14.804;2023-02-05T06:32:20;1.87;;;0.90;;
18838;SDS011;9548;56.920;14.804;2023-02-05T06:34:49;2.07;;;1.00;;
18838;SDS011;9548;56.920;14.804;2023-02-05T06:37:16;2.57;;;1.10;;
18838;SDS011;9548;56.920;14.804;2023-02-05T06:39:43;1.97;;;0.90;;
18838;SDS011;9548;56.920;14.804;2023-02-05T06:42:11;2.33;;;0.90;;
18838;SDS011;9548;56.920;14.804;2023-02-05T06:44:37;1.43;;;0.80;;
18838;SDS011;9548;56.920;14.804;2023-02-05T06:47:05;1.87;;;0.77;;
18838;SDS011;9548;56.920;14.804;2023-02-05T06:49:35;2.17;;;0.87;;
18838;SDS011;9548;56.920;14.804;2023-02-05T06:52:02;3.10;;;0.93;;
18838;SDS011;9548;56.920;14.804;2023-02-05T06:54:29;1.93;;;0.93;;
18838;SDS011;9548;56.920;14.804;2023-02-05T06:56:56;1.37;;;1.07;;
18838;SDS011;9548;56.920;14.804;2023-02-05T06:59:23;4.50;;;1.20;;
18838;SDS011;9548;56.920;14.804;2023-02-05T07:01:50;2.10;;;1.00;;
18838;SDS011;9548;56.920;14.804;2023-02-05T07:04:17;1.97;;;1.00;;
18838;SDS011;9548;56.920;14.804;2023-02-05T07:06:46;1.97;;;0.93;;
18838;SDS011;9548;56.920;14.804;2023-02-05T07:09:13;4.77;;;0.90;;
18838;SDS011;9548;56.920;14.804;2023-02-05T07:11:39;2.00;;;1.17;;
18838;SDS011;9548;56.920;14.804;2023-02-05T07:14:07;2.17;;;0.90;;
18838;SDS011;9548;56.920;14.804;2023-02-05T07:16:34;4.40;;;1.33;;
18838;SDS011;9548;56.920;14.804;2023-02-05T07:19:00;3.97;;;1.30;;
18838;SDS011;9548;56.920;14.804;2023-02-05T07:21:28;4.33;;;1.13;;
18838;SDS011;9548;56.920;14.804;2023-02-05T07:23:56;1.57;;;0.93;;
18838;SDS011;9548;56.920;14.804;2023-02-05T07:26:23;3.57;;;1.30;;
18838;SDS011;9548;56.920;14.804;2023-02-05T07:28:51;1.43;;;0.80;;
18838;SDS011;9548;56.920;14.804;2023-02-05T07:31:18;3.70;;;1.40;;
18838;SDS011;9548;56.920;14.804;2023-02-05T07:33:45;1.43;;;0.83;;
18838;SDS011;9548;56.920;14.804;2023-02-05T07:36:13;2.57;;;1.00;;
18838;SDS011;9548;56.920;14.804;2023-02-05T07:38:42;2.30;;;1.00;;
18838;SDS011;9548;56.920;14.804;2023-02-05T07:41:11;1.87;;;0.93;;
18838;SDS011;9548;56.920;14.804;2023-02-05T07:43:39;2.83;;;1.20;;
18838;SDS011;9548;56.920;14.804;2023-02-05T07:46:07;4.43;;;1.10;;
18838;SDS011;9548;56.920;14.804;2023-02-05T07:48:36;1.83;;;0.87;;
18838;SDS011;9548;56.920;14.804;2023-02-05T07:51:03;2.87;;;1.00;;
18838;SDS011;9548;56.920;14.804;2023-02-05T07:53:31;6.33;;;1.07;;
18838;SDS011;9548;56.920;14.804;2023-02-05T07:56:00;3.23;;;1.03;;
18838;SDS011;9548;56.920;14.804;2023-02-05T07:58:29;3.73;;;1.43;;
18838;SDS011;9548;56.920;14.804;2023-02-05T08:00:58;3.75;;;1.73;;
18838;SDS011;9548;56.920;14.804;2023-02-05T08:03:25;6.23;;;1.43;;
18838;SDS011;9548;56.920;14.804;2023-02-05T08:05:53;2.17;;;1.10;;
18838;SDS011;9548;56.920;14.804;2023-02-05T08:08:20;4.27;;;1.10;;
18838;SDS011;9548;56.920;14.804;2023-02-05T08:10:47;3.30;;;1.20;;
18838;SDS011;9548;56.920;14.804;2023-02-05T08:13:19;6.17;;;1.20;;
18838;SDS011;9548;56.920;14.804;2023-02-05T08:15:48;1.77;;;0.97;;
18838;SDS011;9548;56.920;14.804;2023-02-05T08:18:15;4.47;;;1.40;;
18838;SDS011;9548;56.920;14.804;2023-02-05T08:20:42;2.73;;;1.20;;
18838;SDS011;9548;56.920;14.804;2023-02-05T08:23:10;3.23;;;1.10;;
18838;SDS011;9548;56.920;14.804;2023-02-05T08:25:37;6.67;;;1.30;;
18838;SDS011;9548;56.920;14.804;2023-02-05T08:28:04;4.13;;;1.20;;
18838;SDS011;9548;56.920;14.804;2023-02-05T08:30:31;2.60;;;1.17;;
18838;SDS011;9548;56.920;14.804;2023-02-05T08:33:00;2.10;;;1.20;;
18838;SDS011;9548;56.920;14.804;2023-02-05T08:35:27;5.03;;;1.23;;
18838;SDS011;9548;56.920;14.804;2023-02-05T08:37:54;4.33;;;1.40;;
18838;SDS011;9548;56.920;14.804;2023-02-05T08:40:21;5.20;;;1.10;;
18838;SDS011;9548;56.920;14.804;2023-02-05T08:42:47;3.83;;;1.37;;
18838;SDS011;9548;56.920;14.804;2023-02-05T08:45:17;3.60;;;1.43;;
18838;SDS011;9548;56.920;14.804;2023-02-05T08:47:44;3.57;;;1.60;;
18838;SDS011;9548;56.920;14.804;2023-02-05T08:50:12;2.70;;;1.27;;
18838;SDS011;9548;56.920;14.804;2023-02-05T08:52:39;4.20;;;1.20;;
18838;SDS011;9548;56.920;14.804;2023-02-05T08:55:07;4.77;;;1.77;;
18838;SDS011;9548;56.920;14.804;2023-02-05T08:57:34;4.73;;;1.27;;
18838;SDS011;9548;56.920;14.804;2023-02-05T09:00:01;2.10;;;1.20;;
18838;SDS011;9548;56.920;14.804;2023-02-05T09:02:28;3.50;;;1.60;;
18838;SDS011;9548;56.920;14.804;2023-02-05T09:04:55;2.60;;;1.23;;
18838;SDS011;9548;56.920;14.804;2023-02-05T09:07:23;4.00;;;1.30;;
18838;SDS011;9548;56.920;14.804;2023-02-05T09:09:50;3.50;;;1.40;;
18838;SDS011;9548;56.920;14.804;2023-02-05T09:12:17;3.63;;;1.50;;
18838;SDS011;9548;56.920;14.804;2023-02-05T09:14:44;4.47;;;1.47;;
18838;SDS011;9548;56.920;14.804;2023-02-05T09:17:11;2.83;;;1.50;;
18838;SDS011;9548;56.920;14.804;2023-02-05T09:19:39;5.33;;;1.60;;
18838;SDS011;9548;56.920;14.804;2023-02-05T09:22:07;2.37;;;1.50;;
18838;SDS011;9548;56.920;14.804;2023-02-05T09:24:36;4.03;;;1.53;;
18838;SDS011;9548;56.920;14.804;2023-02-05T09:27:03;3.03;;;1.40;;
18838;SDS011;9548;56.920;14.804;2023-02-05T09:29:31;2.07;;;1.30;;
18838;SDS011;9548;56.920;14.804;2023-02-05T09:31:57;4.87;;;1.30;;
18838;SDS011;9548;56.920;14.804;2023-02-05T09:34:24;6.57;;;1.67;;
18838;SDS011;9548;56.920;14.804;2023-02-05T09:36:51;3.80;;;1.30;;
18838;SDS011;9548;56.920;14.804;2023-02-05T09:39:18;2.97;;;1.37;;
18838;SDS011;9548;56.920;14.804;2023-02-05T09:41:49;2.67;;;1.03;;
18838;SDS011;9548;56.920;14.804;2023-02-05T09:44:24;2.07;;;0.80;;
18838;SDS011;9548;56.920;14.804;2023-02-05T09:47:04;2.47;;;1.20;;
18838;SDS011;9548;56.920;14.804;2023-02-05T09:49:37;4.43;;;1.40;;
18838;SDS011;9548;56.920;14.804;2023-02-05T09:52:12;3.40;;;1.13;;
18838;SDS011;9548;56.920;14.804;2023-02-05T09:54:44;1.90;;;0.90;;
18838;SDS011;9548;56.920;14.804;2023-02-05T09:57:19;4.40;;;1.10;;
18838;SDS011;9548;56.920;14.804;2023-02-05T09:59:56;2.27;;;1.20;;
18838;SDS011;9548;56.920;14.804;2023-02-05T10:02:25;3.77;;;1.37;;
18838;SDS011;9548;56.920;14.804;2023-02-05T10:04:56;2.00;;;1.23;;
18838;SDS011;9548;56.920;14.804;2023-02-05T10:07:29;1.73;;;0.90;;
18838;SDS011;9548;56.920;14.804;2023-02-05T10:10:12;2.73;;;1.10;;
18838;SDS011;9548;56.920;14.804;2023-02-05T10:12:52;4.00;;;0.93;;
18838;SDS011;9548;56.920;14.804;2023-02-05T10:18:23;3.77;;;1.20;;
18838;SDS011;9548;56.920;14.804;2023-02-05T10:21:00;3.05;;;1.15;;
18838;SDS011;9548;56.920;14.804;2023-02-05T10:23:45;2.15;;;1.00;;
18838;SDS011;9548;56.920;14.804;2023-02-05T10:26:27;1.17;;;0.80;;
18838;SDS011;9548;56.920;14.804;2023-02-05T10:29:10;1.30;;;0.80;;
18838;SDS011;9548;56.920;14.804;2023-02-05T10:31:47;1.77;;;0.90;;
18838;SDS011;9548;56.920;14.804;2023-02-05T10:34:28;2.83;;;1.10;;
18838;SDS011;9548;56.920;14.804;2023-02-05T10:37:09;2.58;;;1.00;;
18838;SDS011;9548;56.920;14.804;2023-02-05T10:39:39;3.97;;;1.00;;
18838;SDS011;9548;56.920;14.804;2023-02-05T10:42:19;2.83;;;0.83;;
18838;SDS011;9548;56.920;14.804;2023-02-05T10:44:54;1.60;;;0.90;;
18838;SDS011;9548;56.920;14.804;2023-02-05T10:47:36;3.30;;;1.10;;
18838;SDS011;9548;56.920;14.804;2023-02-05T10:50:13;2.43;;;1.00;;
18838;SDS011;9548;56.920;14.804;2023-02-05T10:52:45;1.97;;;0.90;;
18838;SDS011;9548;56.920;14.804;2023-02-05T10:55:12;2.58;;;0.80;;
18838;SDS011;9548;56.920;14.804;2023-02-05T10:57:39;2.42;;;1.33;;
18838;SDS011;9548;56.920;14.804;2023-02-05T11:00:12;1.50;;;0.75;;
18838;SDS011;9548;56.920;14.804;2023-02-05T11:02:41;1.87;;;0.90;;
18838;SDS011;9548;56.920;14.804;2023-02-05T11:05:14;2.40;;;1.10;;
18838;SDS011;9548;56.920;14.804;2023-02-05T11:07:48;1.53;;;0.83;;
18838;SDS011;9548;56.920;14.804;2023-02-05T11:10:17;2.25;;;0.98;;
18838;SDS011;9548;56.920;14.804;2023-02-05T11:12:46;1.03;;;0.80;;
18838;SDS011;9548;56.920;14.804;2023-02-05T11:15:20;2.97;;;0.90;;
18838;SDS011;9548;56.920;14.804;2023-02-05T11:17:49;1.27;;;0.70;;
18838;SDS011;9548;56.920;14.804;2023-02-05T11:20:22;1.07;;;0.83;;
18838;SDS011;9548;56.920;14.804;2023-02-05T11:23:04;3.73;;;1.00;;
18838;SDS011;9548;56.920;14.804;2023-02-05T11:25:47;3.15;;;0.80;;
18838;SDS011;9548;56.920;14.804;2023-02-05T11:28:20;4.25;;;1.00;;
18838;SDS011;9548;56.920;14.804;2023-02-05T11:30:53;2.80;;;0.80;;
18838;SDS011;9548;56.920;14.804;2023-02-05T11:33:27;1.80;;;0.80;;
18838;SDS011;9548;56.920;14.804;2023-02-05T11:35:57;1.73;;;0.90;;
18838;SDS011;9548;56.920;14.804;2023-02-05T11:38:29;1.73;;;0.63;;
18838;SDS011;9548;56.920;14.804;2023-02-05T11:41:03;3.40;;;0.80;;
18838;SDS011;9548;56.920;14.804;2023-02-05T11:43:32;2.80;;;0.77;;
18838;SDS011;9548;56.920;14.804;2023-02-05T11:46:02;3.53;;;0.95;;
18838;SDS011;9548;56.920;14.804;2023-02-05T11:48:33;4.70;;;1.00;;
18838;SDS011;9548;56.920;14.804;2023-02-05T11:51:07;3.07;;;0.97;;
18838;SDS011;9548;56.920;14.804;2023-02-05T11:53:36;2.03;;;0.80;;
18838;SDS011;9548;56.920;14.804;2023-02-05T11:56:17;2.22;;;0.93;;
18838;SDS011;9548;56.920;14.804;2023-02-05T11:58:56;1.23;;;0.60;;
18838;SDS011;9548;56.920;14.804;2023-02-05T12:01:26;2.70;;;0.93;;
18838;SDS011;9548;56.920;14.804;2023-02-05T12:03:58;2.53;;;0.98;;
18838;SDS011;9548;56.920;14.804;2023-02-05T12:06:28;2.40;;;0.90;;
18838;SDS011;9548;56.920;14.804;2023-02-05T12:09:00;0.80;;;0.55;;
18838;SDS011;9548;56.920;14.804;2023-02-05T12:11:42;1.23;;;0.70;;
18838;SDS011;9548;56.920;14.804;2023-02-05T12:14:30;4.22;;;0.98;;
18838;SDS011;9548;56.920;14.804;2023-02-05T12:17:06;3.53;;;1.00;;
18838;SDS011;9548;56.920;14.804;2023-02-05T12:19:51;2.10;;;0.80;;
18838;SDS011;9548;56.920;14.804;2023-02-05T12:22:25;3.33;;;0.90;;
18838;SDS011;9548;56.920;14.804;2023-02-05T12:25:12;5.45;;;1.20;;
18838;SDS011;9548;56.920;14.804;2023-02-05T12:27:48;4.15;;;0.95;;
18838;SDS011;9548;56.920;14.804;2023-02-05T12:33:32;1.42;;;0.95;;
18838;SDS011;9548;56.920;14.804;2023-02-05T12:36:22;1.35;;;0.90;;
18838;SDS011;9548;56.920;14.804;2023-02-05T12:38:59;1.98;;;0.88;;
18838;SDS011;9548;56.920;14.804;2023-02-05T12:41:32;0.75;;;0.50;;
18838;SDS011;9548;56.920;14.804;2023-02-05T12:44:10;0.93;;;0.68;;
18838;SDS011;9548;56.920;14.804;2023-02-05T12:46:53;2.25;;;1.10;;
18838;SDS011;9548;56.920;14.804;2023-02-05T12:52:29;3.00;;;0.90;;
18838;SDS011;9548;56.920;14.804;2023-02-05T12:55:18;3.55;;;1.00;;
18838;SDS011;9548;56.920;14.804;2023-02-05T12:57:54;1.00;;;0.70;;
18838;SDS011;9548;56.920;14.804;2023-02-05T13:00:25;3.65;;;1.08;;
18838;SDS011;9548;56.920;14.804;2023-02-05T13:02:56;6.28;;;3.22;;
18838;SDS011;9548;56.920;14.804;2023-02-05T13:05:33;1.35;;;1.13;;
18838;SDS011;9548;56.920;14.804;2023-02-05T13:08:04;2.45;;;1.27;;
18838;SDS011;9548;56.920;14.804;2023-02-05T13:10:38;3.40;;;1.30;;
18838;SDS011;9548;56.920;14.804;2023-02-05T13:13:15;2.40;;;0.90;;
18838;SDS011;9548;56.920;14.804;2023-02-05T13:15:45;1.52;;;0.57;;
18838;SDS011;9548;56.920;14.804;2023-02-05T13:18:18;1.95;;;0.80;;
18838;SDS011;9548;56.920;14.804;2023-02-05T13:20:52;1.10;;;0.82;;
18838;SDS011;9548;56.920;14.804;2023-02-05T13:23:39;1.83;;;0.80;;
18838;SDS011;9548;56.920;14.804;2023-02-05T13:26:27;1.95;;;0.60;;
18838;SDS011;9548;56.920;14.804;2023-02-05T13:29:16;1.52;;;0.73;;
18838;SDS011;9548;56.920;14.804;2023-02-05T13:31:47;1.30;;;0.60;;
18838;SDS011;9548;56.920;14.804;2023-02-05T13:34:17;1.98;;;0.77;;
18838;SDS011;9548;56.920;14.804;2023-02-05T13:37:07;3.83;;;0.80;;
18838;SDS011;9548;56.920;14.804;2023-02-05T13:40:00;2.90;;;0.65;;
18838;SDS011;9548;56.920;14.804;2023-02-05T13:42:56;3.05;;;0.80;;
18838;SDS011;9548;56.920;14.804;2023-02-05T13:46:11;0.93;;;0.60;;
18838;SDS011;9548;56.920;14.804;2023-02-05T13:49:14;1.80;;;0.80;;
18838;SDS011;9548;56.920;14.804;2023-02-05T13:52:23;4.20;;;0.85;;
18838;SDS011;9548;56.920;14.804;2023-02-05T13:55:12;0.63;;;0.60;;
18838;SDS011;9548;56.920;14.804;2023-02-05T13:58:10;2.33;;;0.75;;
18838;SDS011;9548;56.920;14.804;2023-02-05T14:00:48;1.27;;;0.75;;
18838;SDS011;9548;56.920;14.804;2023-02-05T14:03:30;1.33;;;0.70;;
18838;SDS011;9548;56.920;14.804;2023-02-05T14:06:16;0.98;;;0.70;;
18838;SDS011;9548;56.920;14.804;2023-02-05T14:08:50;1.87;;;0.90;;
18838;SDS011;9548;56.920;14.804;2023-02-05T14:11:23;1.07;;;0.70;;
18838;SDS011;9548;56.920;14.804;2023-02-05T14:16:46;5.80;;;0.93;;
18838;SDS011;9548;56.920;14.804;2023-02-05T14:19:17;1.98;;;0.80;;
18838;SDS011;9548;56.920;14.804;2023-02-05T14:24:39;1.50;;;0.80;;
18838;SDS011;9548;56.920;14.804;2023-02-05T14:27:42;4.93;;;0.80;;
18838;SDS011;9548;56.920;14.804;2023-02-05T14:33:25;1.38;;;0.90;;
18838;SDS011;9548;56.920;14.804;2023-02-05T14:39:01;2.25;;;0.90;;
18838;SDS011;9548;56.920;14.804;2023-02-05T14:41:46;4.13;;;1.00;;
18838;SDS011;9548;56.920;14.804;2023-02-05T14:44:16;1.10;;;0.80;;
18838;SDS011;9548;56.920;14.804;2023-02-05T14:47:02;1.85;;;0.85;;
18838;SDS011;9548;56.920;14.804;2023-02-05T14:49:35;1.80;;;1.00;;
18838;SDS011;9548;56.920;14.804;2023-02-05T14:52:07;3.80;;;1.07;;
18838;SDS011;9548;56.920;14.804;2023-02-05T14:54:52;3.03;;;0.70;;
18838;SDS011;9548;56.920;14.804;2023-02-05T14:57:25;1.30;;;0.90;;
18838;SDS011;9548;56.920;14.804;2023-02-05T14:59:55;2.93;;;0.97;;
18838;SDS011;9548;56.920;14.804;2023-02-05T15:05:33;2.07;;;1.07;;
18838;SDS011;9548;56.920;14.804;2023-02-05T15:08:11;2.97;;;1.10;;
18838;SDS011;9548;56.920;14.804;2023-02-05T15:10:44;4.73;;;1.13;;
18838;SDS011;9548;56.920;14.804;2023-02-05T15:13:16;3.70;;;1.37;;
18838;SDS011;9548;56.920;14.804;2023-02-05T15:18:44;2.73;;;1.47;;
18838;SDS011;9548;56.920;14.804;2023-02-05T15:21:14;10.50;;;2.20;;
18838;SDS011;9548;56.920;14.804;2023-02-05T15:23:48;20.70;;;4.00;;
18838;SDS011;9548;56.920;14.804;2023-02-05T15:26:20;9.07;;;2.33;;
18838;SDS011;9548;56.920;14.804;2023-02-05T15:28:55;5.23;;;1.50;;
18838;SDS011;9548;56.920;14.804;2023-02-05T15:31:29;1.90;;;1.13;;
18838;SDS011;9548;56.920;14.804;2023-02-05T15:34:10;1.97;;;1.07;;
18838;SDS011;9548;56.920;14.804;2023-02-05T15:36:56;2.83;;;1.20;;
18838;SDS011;9548;56.920;14.804;2023-02-05T15:39:29;2.50;;;0.90;;
18838;SDS011;9548;56.920;14.804;2023-02-05T15:41:59;2.70;;;1.20;;
18838;SDS011;9548;56.920;14.804;2023-02-05T15:44:29;3.60;;;0.93;;
18838;SDS011;9548;56.920;14.804;2023-02-05T15:46:59;2.27;;;1.43;;